Time;durP1;ratioP1;P1;durP2;ratioP2;P2;SDS_P1;SDS_P2;PMS_P1;PMS_P2;Temp;Humidity;BMP_temperature;BMP_pressure;BME280_temperature;BME280_humidity;BME280_pressure;Samples;Min_cycle;Max_cycle;Signal;HPM_P1;HPM_P2
2021/04/03 00:01:07;;;;;;;8.47;6.70;;;6.20;96.80;;;7.01;58.18;98331.78;5193578;28;20670;-59
2021/04/03 00:03:39;;;;;;;10.50;7.53;;;6.20;97.00;;;7.19;58.01;98323.03;5204994;28;20295;-59
2021/04/03 00:06:12;;;;;;;7.57;6.97;;;6.40;96.80;;;7.20;57.29;98334.06;5191668;28;20237;-59
2021/04/03 00:08:44;;;;;;;7.67;6.80;;;6.40;96.40;;;7.22;57.83;98327.47;5186536;28;20201;-59
2021/04/03 00:11:20;;;;;;;9.17;7.20;;;6.50;96.20;;;7.25;56.60;98331.91;5186325;28;20281;-57
2021/04/03 00:13:52;;;;;;;8.53;7.10;;;6.40;96.00;;;7.32;57.35;98331.59;5188314;28;20638;-57
2021/04/03 00:16:24;;;;;;;9.37;7.60;;;6.40;95.90;;;7.39;55.94;98322.00;5191683;28;20292;-58
2021/04/03 00:18:56;;;;;;;10.93;6.93;;;6.50;95.60;;;7.38;56.61;98329.50;5186506;28;20313;-59
2021/04/03 00:21:29;;;;;;;8.03;7.23;;;6.50;95.80;;;7.40;56.75;98336.50;5186784;28;20231;-59
2021/04/03 00:24:01;;;;;;;7.93;7.20;;;6.60;96.00;;;7.41;56.40;98329.75;5186282;28;20308;-59
2021/04/03 00:26:33;;;;;;;8.03;6.90;;;6.50;95.90;;;7.44;55.88;98330.00;5186081;28;20702;-59
2021/04/03 00:29:05;;;;;;;10.07;7.53;;;6.50;95.50;;;7.43;56.28;98325.66;5186580;28;20205;-58
2021/04/03 00:31:37;;;;;;;8.30;7.50;;;6.50;95.80;;;7.41;56.87;98330.66;5190854;28;20191;-57
2021/04/03 00:34:09;;;;;;;8.43;7.57;;;6.50;95.70;;;7.33;56.33;98330.84;5186346;28;20575;-57
2021/04/03 00:36:42;;;;;;;8.60;7.43;;;6.50;96.10;;;7.36;56.40;98326.00;5185654;28;20205;-58
2021/04/03 00:39:14;;;;;;;8.63;7.00;;;6.50;95.70;;;7.38;56.47;98332.06;5204973;28;20307;-55
2021/04/03 00:41:46;;;;;;;8.23;7.43;;;6.50;95.80;;;7.51;56.60;98324.59;5186587;28;20282;-55
2021/04/03 00:44:19;;;;;;;7.83;7.03;;;6.60;95.80;;;7.44;56.10;98330.00;5193814;28;20230;-57
2021/04/03 00:46:51;;;;;;;8.23;7.23;;;6.50;95.50;;;7.44;56.15;98319.84;5187030;28;20194;-54
2021/04/03 00:49:23;;;;;;;7.67;7.03;;;6.60;95.70;;;7.42;55.74;98321.38;5186231;28;20279;-59
2021/04/03 00:52:03;;;;;;;8.63;7.67;;;6.50;95.50;;;7.37;55.48;98309.94;5186073;28;20684;-59
2021/04/03 00:54:36;;;;;;;7.37;6.67;;;6.40;95.30;;;7.31;55.88;98312.91;5186095;28;20190;-58
2021/04/03 00:57:09;;;;;;;7.77;7.10;;;6.40;95.40;;;7.30;55.67;98316.22;5204314;28;20666;-59
2021/04/03 00:59:41;;;;;;;9.23;7.17;;;6.50;95.40;;;7.40;55.90;98317.81;5204614;28;20212;-60
2021/04/03 01:02:13;;;;;;;7.63;6.93;;;6.50;95.50;;;7.38;55.96;98311.72;5192532;28;20321;-57
2021/04/03 01:04:45;;;;;;;9.50;7.10;;;6.50;95.30;;;7.39;55.85;98316.94;5205580;28;20686;-59
2021/04/03 01:07:18;;;;;;;8.40;7.47;;;6.50;95.30;;;7.43;56.00;98302.78;5185887;28;20241;-59
2021/04/03 01:09:50;;;;;;;8.53;6.77;;;6.50;95.60;;;7.49;55.79;98295.63;5192656;28;20216;-58
2021/04/03 01:12:32;;;;;;;7.93;7.23;;;6.60;95.40;;;7.47;55.80;98302.28;5206195;28;20222;-60
2021/04/03 01:15:12;;;;;;;8.13;7.27;;;6.60;95.30;;;7.40;54.96;98313.59;5197256;28;20293;-59
2021/04/03 01:17:59;;;;;;;7.77;6.97;;;6.50;94.60;;;7.45;54.63;98311.44;5185580;28;20221;-59
2021/04/03 01:20:56;;;;;;;7.90;7.20;;;6.50;94.70;;;7.44;55.25;98305.47;5185409;28;20296;-59
2021/04/03 01:24:23;;;;;;;10.47;7.63;;;6.50;94.90;;;7.38;55.41;98304.09;5185736;28;20264;-60
2021/04/03 01:27:16;;;;;;;9.67;6.67;;;6.40;94.90;;;7.37;55.16;98304.88;5179867;28;20198;-59
2021/04/03 01:30:01;;;;;;;7.80;6.93;;;6.50;95.10;;;7.36;55.92;98292.94;5189552;28;20634;-58
2021/04/03 01:32:42;;;;;;;7.63;6.87;;;6.40;95.30;;;7.36;55.43;98293.81;5174456;28;20659;-59
2021/04/03 01:35:21;;;;;;;7.83;7.07;;;6.50;94.80;;;7.36;55.25;98301.44;5187304;28;20198;-59
2021/04/03 01:37:59;;;;;;;7.53;6.83;;;6.40;95.10;;;7.33;55.26;98302.88;5185378;28;20249;-59
2021/04/03 01:40:33;;;;;;;11.10;6.80;;;6.40;95.10;;;7.19;56.00;98302.69;5192860;28;20272;-59
2021/04/03 01:43:11;;;;;;;7.43;6.40;;;6.30;95.30;;;7.19;55.99;98300.16;5205851;28;20586;-60
2021/04/03 01:45:46;;;;;;;7.60;6.90;;;6.20;95.70;;;7.19;56.14;98301.81;5191625;28;20555;-58
2021/04/03 01:48:20;;;;;;;8.60;6.63;;;6.20;95.90;;;7.14;56.74;98309.06;5200340;28;20193;-58
2021/04/03 01:50:52;;;;;;;10.00;6.90;;;6.20;95.90;;;7.15;57.05;98304.84;5190790;28;20198;-56
2021/04/03 01:53:25;;;;;;;8.87;7.10;;;6.20;96.00;;;7.10;56.73;98296.03;5184963;28;20656;-59
2021/04/03 01:55:58;;;;;;;7.37;6.67;;;6.20;96.10;;;7.06;56.86;98299.06;5185204;28;20578;-59
2021/04/03 01:58:32;;;;;;;7.37;6.50;;;6.10;96.10;;;7.08;57.36;98293.34;5184869;28;20663;-60
2021/04/03 02:01:05;;;;;;;7.30;6.63;;;6.10;96.40;;;7.13;57.25;98297.13;5185102;28;20717;-57
2021/04/03 02:03:38;;;;;;;7.30;6.60;;;6.20;96.40;;;7.09;57.20;98294.22;5214091;22;20299;-53
2021/04/03 02:06:13;;;;;;;7.23;6.53;;;6.20;96.50;;;6.96;57.04;98285.66;5216915;28;20288;-55
2021/04/03 02:08:48;;;;;;;8.20;6.80;;;6.00;96.10;;;6.92;57.25;98283.63;5209351;28;20729;-55
2021/04/03 02:11:21;;;;;;;7.40;6.70;;;6.00;96.10;;;6.90;57.26;98286.84;5206195;28;20288;-56
2021/04/03 02:13:55;;;;;;;6.97;6.07;;;6.00;96.30;;;6.94;57.58;98279.56;5209204;28;20623;-55
2021/04/03 02:16:30;;;;;;;7.17;5.90;;;6.00;96.30;;;6.90;57.55;98286.84;5199575;28;20191;-54
2021/04/03 02:19:06;;;;;;;6.33;5.80;;;6.00;96.40;;;6.89;57.77;98283.41;5193795;28;20221;-56
2021/04/03 02:21:40;;;;;;;6.57;5.97;;;6.00;96.50;;;6.81;57.92;98288.66;5189309;28;20592;-55
2021/04/03 02:24:12;;;;;;;7.53;6.40;;;5.80;96.50;;;6.85;57.73;98283.06;5189047;28;20304;-54
2021/04/03 02:26:46;;;;;;;7.63;6.20;;;5.90;96.30;;;6.80;57.74;98282.69;5188475;28;20646;-55
2021/04/03 02:29:18;;;;;;;5.83;5.33;;;5.90;96.40;;;6.76;57.97;98294.25;5189658;28;20195;-56
2021/04/03 02:31:51;;;;;;;7.00;6.40;;;5.80;96.30;;;6.68;57.53;98285.16;5188207;28;20547;-57
2021/04/03 02:34:23;;;;;;;6.63;5.87;;;5.70;96.20;;;6.69;57.68;98292.00;5188579;28;20214;-55
2021/04/03 02:36:55;;;;;;;7.33;5.87;;;5.80;96.40;;;6.74;57.77;98293.25;5188364;28;20301;-55
2021/04/03 02:39:28;;;;;;;7.03;6.37;;;5.80;96.40;;;6.83;57.36;98304.91;5201654;28;20655;-55
2021/04/03 02:42:07;;;;;;;7.43;6.30;;;5.90;96.60;;;6.83;57.86;98290.53;5208732;28;20688;-53
2021/04/03 02:44:49;;;;;;;8.13;6.33;;;5.90;96.90;;;6.92;58.32;98292.91;5204624;28;20744;-57
2021/04/03 02:47:27;;;;;;;8.70;7.40;;;6.00;97.10;;;6.92;58.99;98286.16;5191868;28;20208;-54
2021/04/03 02:50:04;;;;;;;6.87;6.17;;;5.90;97.40;;;6.92;58.84;98285.28;5195648;28;20731;-57
2021/04/03 02:52:39;;;;;;;6.87;6.27;;;5.90;97.10;;;6.89;58.24;98290.13;5193300;28;20234;-56
2021/04/03 02:55:14;;;;;;;6.83;6.17;;;5.90;97.20;;;6.85;58.54;98294.09;5208862;28;20394;-55
2021/04/03 02:57:48;;;;;;;6.17;5.67;;;5.90;97.00;;;6.86;58.34;98306.03;5201646;28;20225;-56
2021/04/03 03:00:22;;;;;;;7.17;6.17;;;5.90;97.10;;;6.86;58.39;98305.16;5187969;28;20236;-56
2021/04/03 03:02:56;;;;;;;7.87;6.13;;;5.90;97.10;;;6.91;57.77;98304.72;5193282;28;20259;-56
2021/04/03 03:05:28;;;;;;;7.03;6.20;;;5.90;96.70;;;6.85;58.38;98304.25;5208293;28;20656;-55
2021/04/03 03:08:03;;;;;;;6.73;6.13;;;5.90;96.70;;;6.87;58.42;98306.94;5200885;28;20199;-55
2021/04/03 03:10:36;;;;;;;8.13;6.00;;;5.90;97.10;;;6.84;58.33;98299.03;5188102;28;20212;-56
2021/04/03 03:13:09;;;;;;;8.00;5.93;;;5.80;97.10;;;6.82;58.40;98303.13;5195306;28;20222;-56
2021/04/03 03:15:42;;;;;;;7.07;6.03;;;5.80;97.10;;;6.86;58.78;98300.94;5186973;28;20216;-56
2021/04/03 03:18:16;;;;;;;7.70;5.70;;;5.90;97.40;;;6.83;59.13;98299.81;5191926;28;20218;-56
2021/04/03 03:20:48;;;;;;;8.03;6.07;;;5.80;97.80;;;6.88;59.79;98298.53;5187645;28;20226;-56
2021/04/03 03:23:21;;;;;;;7.17;6.40;;;5.80;98.00;;;6.83;59.33;98293.09;5195478;28;20591;-56
2021/04/03 03:25:56;;;;;;;6.20;5.70;;;5.80;98.00;;;6.77;59.40;98296.03;5207626;28;20198;-55
2021/04/03 03:28:30;;;;;;;6.97;6.23;;;5.70;97.90;;;6.71;59.55;98300.63;5201915;28;20681;-56
2021/04/03 03:31:02;;;;;;;6.03;5.53;;;5.70;98.10;;;6.68;60.03;98290.22;5203739;28;20236;-57
2021/04/03 03:33:35;;;;;;;6.80;6.10;;;5.70;97.80;;;6.58;59.36;98290.28;5188405;28;20249;-56
2021/04/03 03:36:09;;;;;;;6.60;6.00;;;5.60;97.50;;;6.39;59.61;98284.50;5190265;28;20230;-55
2021/04/03 03:38:42;;;;;;;6.47;5.87;;;5.50;97.50;;;6.19;59.96;98286.31;5166561;28;20230;-56
2021/04/03 03:41:14;;;;;;;7.27;6.57;;;5.20;97.60;;;6.12;59.21;98296.72;5176451;28;20631;-55
2021/04/03 03:43:47;;;;;;;8.77;6.07;;;5.20;97.60;;;6.06;59.70;98299.66;5201827;28;20311;-55
2021/04/03 03:46:19;;;;;;;6.60;6.00;;;5.10;97.90;;;6.03;60.06;98293.44;5202359;28;20226;-56
2021/04/03 03:48:52;;;;;;;7.60;7.00;;;5.10;97.90;;;5.98;60.47;98294.72;5186656;28;20285;-57
2021/04/03 03:51:24;;;;;;;8.67;7.30;;;5.10;98.00;;;5.99;60.57;98296.50;5188363;28;20205;-56
2021/04/03 03:53:57;;;;;;;8.30;7.13;;;5.00;98.00;;;6.03;60.16;98290.91;5166696;28;20317;-55
2021/04/03 03:56:29;;;;;;;7.30;6.60;;;5.00;98.30;;;5.99;61.29;98301.59;5173270;28;20628;-53
2021/04/03 03:59:01;;;;;;;7.83;5.80;;;5.00;99.00;;;5.86;61.29;98295.44;5187063;28;20313;-56
2021/04/03 04:01:34;;;;;;;6.73;6.13;;;4.90;99.00;;;5.90;62.13;98295.72;5186744;28;20223;-56
2021/04/03 04:04:06;;;;;;;6.17;5.67;;;4.90;99.30;;;5.78;62.17;98310.81;5186614;28;20319;-55
2021/04/03 04:06:39;;;;;;;7.33;6.67;;;4.80;99.20;;;5.66;61.93;98305.59;5192013;28;20693;-53
2021/04/03 04:09:11;;;;;;;9.10;6.43;;;4.70;99.50;;;5.71;62.55;98309.41;5191566;28;20289;-53
2021/04/03 04:11:43;;;;;;;7.50;6.53;;;4.70;99.80;;;5.78;62.52;98305.72;5192462;28;20195;-53
2021/04/03 04:14:15;;;;;;;7.33;6.67;;;4.80;99.60;;;5.77;62.70;98309.03;5207284;28;20319;-56
2021/04/03 04:16:47;;;;;;;7.17;5.57;;;4.80;99.90;;;5.86;62.83;98320.81;5202217;28;20288;-55
2021/04/03 04:19:20;;;;;;;6.37;5.77;;;4.90;99.90;;;5.90;63.29;98321.09;5189676;28;20217;-53
2021/04/03 04:21:52;;;;;;;6.63;6.03;;;4.90;99.90;;;5.88;63.85;98316.78;5205213;28;20608;-52
2021/04/03 04:24:24;;;;;;;6.87;6.27;;;4.90;99.90;;;5.88;63.58;98316.78;5206807;28;20781;-57
2021/04/03 04:26:57;;;;;;;6.80;5.60;;;4.90;99.90;;;5.89;63.41;98325.25;5203235;28;20196;-54
2021/04/03 04:29:30;;;;;;;6.17;5.57;;;4.90;99.90;;;5.94;63.71;98325.69;5186159;28;20191;-56
2021/04/03 04:32:02;;;;;;;6.17;5.63;;;5.00;99.90;;;6.03;62.78;98334.03;5189454;28;20284;-56
2021/04/03 04:34:36;;;;;;;6.83;6.10;;;4.90;99.90;;;6.06;62.98;98329.22;5206012;28;20226;-57
2021/04/03 04:37:08;;;;;;;6.83;5.90;;;5.00;99.90;;;6.00;63.34;98333.78;5196501;28;20237;-57
2021/04/03 04:39:40;;;;;;;7.13;6.43;;;4.90;99.90;;;5.88;63.24;98333.66;5186102;28;20262;-57
2021/04/03 04:42:12;;;;;;;8.30;6.10;;;4.80;99.90;;;5.88;64.10;98328.56;5185887;28;20209;-56
2021/04/03 04:44:44;;;;;;;7.83;5.97;;;4.80;99.90;;;5.88;63.83;98326.91;5188023;28;20221;-57
2021/04/03 04:47:16;;;;;;;7.67;6.90;;;4.80;99.90;;;5.83;64.01;98334.91;5195566;28;20200;-57
2021/04/03 04:49:50;;;;;;;7.37;6.67;;;4.80;99.90;;;5.65;63.53;98339.34;5185594;28;20294;-57
2021/04/03 04:52:22;;;;;;;7.87;6.33;;;4.70;99.90;;;5.72;64.35;98340.72;5186212;28;20198;-57
2021/04/03 04:54:54;;;;;;;7.80;6.30;;;4.70;99.90;;;5.77;64.29;98339.47;5186062;28;20225;-57
2021/04/03 04:57:27;;;;;;;8.73;6.40;;;4.80;99.90;;;5.80;64.72;98345.69;5186590;28;20257;-57
2021/04/03 04:59:59;;;;;;;7.03;6.33;;;4.80;99.90;;;5.81;64.51;98341.53;5186788;28;20261;-57
2021/04/03 05:02:31;;;;;;;8.27;6.23;;;4.80;99.90;;;5.83;64.42;98347.59;5174276;28;20696;-56
2021/04/03 05:05:05;;;;;;;6.57;5.93;;;4.80;99.90;;;5.90;64.43;98342.28;5186426;28;20213;-56
2021/04/03 05:07:37;;;;;;;7.53;6.17;;;4.90;99.90;;;5.94;64.94;98333.28;5165250;28;20237;-57
2021/04/03 05:10:12;;;;;;;7.60;6.80;;;5.00;99.90;;;6.00;64.87;98344.81;5168758;28;20208;-56
2021/04/03 05:12:44;;;;;;;8.67;7.37;;;5.00;99.90;;;6.00;63.90;98344.81;5205938;28;20271;-56
2021/04/03 05:15:16;;;;;;;6.67;6.07;;;5.00;99.90;;;6.04;63.88;98341.78;5185288;28;20287;-57
2021/04/03 05:17:48;;;;;;;7.03;6.37;;;5.10;99.90;;;6.10;63.72;98346.50;5185018;28;20287;-57
2021/04/03 05:20:22;;;;;;;7.83;7.10;;;5.10;99.90;;;6.05;63.10;98342.69;5186526;28;20203;-58
2021/04/03 05:22:54;;;;;;;8.87;8.07;;;5.10;99.90;;;5.96;63.79;98352.06;5185493;28;20229;-57
2021/04/03 05:25:27;;;;;;;9.00;8.20;;;4.90;99.90;;;6.00;63.49;98354.97;5205882;28;20762;-55
2021/04/03 05:27:59;;;;;;;10.50;8.63;;;5.00;99.90;;;5.88;62.96;98370.03;5185511;28;20207;-55
2021/04/03 05:30:31;;;;;;;9.70;8.80;;;4.90;99.90;;;5.95;63.04;98370.56;5185660;28;20203;-57
2021/04/03 05:33:03;;;;;;;9.53;8.53;;;5.00;99.90;;;6.05;63.33;98368.94;5185159;28;20232;-57
2021/04/03 05:35:36;;;;;;;9.33;7.97;;;5.10;99.90;;;6.04;62.75;98378.97;5185866;28;20198;-57
2021/04/03 05:38:08;;;;;;;8.87;7.57;;;5.10;99.90;;;6.08;62.87;98379.34;5185869;28;20219;-58
2021/04/03 05:40:40;;;;;;;8.37;7.47;;;5.10;99.90;;;6.15;62.81;98380.72;5188135;28;20631;-57
2021/04/03 05:43:15;;;;;;;11.40;7.73;;;5.20;99.80;;;6.31;62.08;98383.75;5192320;28;20231;-56
2021/04/03 05:45:53;;;;;;;8.37;7.00;;;5.30;99.90;;;6.40;62.28;98382.75;5184921;28;20285;-57
2021/04/03 05:48:25;;;;;;;9.37;7.20;;;5.40;99.90;;;6.48;62.41;98386.78;5184770;28;20191;-57
2021/04/03 05:51:00;;;;;;;9.30;6.90;;;5.30;99.90;;;6.51;62.18;98387.03;5185818;28;20621;-57
2021/04/03 05:53:33;;;;;;;10.43;7.30;;;5.40;99.90;;;6.52;61.91;98398.97;5185074;28;20772;-57
2021/04/03 05:56:06;;;;;;;9.57;7.57;;;5.40;99.90;;;6.52;61.94;98399.88;5186919;28;20214;-57
2021/04/03 05:58:39;;;;;;;10.33;8.10;;;5.50;99.90;;;6.59;62.22;98402.91;5184548;28;20312;-57
2021/04/03 06:01:12;;;;;;;9.43;7.53;;;5.50;99.70;;;6.59;61.79;98413.06;5189223;28;20209;-57
2021/04/03 06:03:44;;;;;;;9.57;7.60;;;5.60;99.60;;;6.65;61.70;98414.44;5186940;28;20261;-56
2021/04/03 06:06:17;;;;;;;7.70;6.93;;;5.70;99.20;;;6.71;61.56;98422.56;5185106;28;20199;-56
2021/04/03 06:08:49;;;;;;;8.40;7.60;;;5.70;99.00;;;6.83;60.10;98420.13;5184462;28;20202;-56
2021/04/03 06:11:23;;;;;;;8.73;7.83;;;5.80;98.60;;;6.91;59.62;98414.00;5189942;28;20198;-57
2021/04/03 06:14:06;;;;;;;9.27;7.43;;;5.80;98.40;;;6.99;59.76;98419.69;5191739;28;20253;-55
2021/04/03 06:16:39;;;;;;;9.17;8.00;;;5.90;98.20;;;7.12;58.43;98424.97;5190201;28;20281;-55
2021/04/03 06:19:15;;;;;;;7.70;6.90;;;6.00;98.10;;;7.16;58.69;98429.56;5196369;28;20312;-55
2021/04/03 06:21:56;;;;;;;11.57;7.43;;;6.10;98.00;;;7.18;58.74;98428.03;5184655;28;20301;-57
2021/04/03 06:24:30;;;;;;;12.37;7.03;;;6.10;98.00;;;7.32;58.52;98431.63;5187182;28;20311;-54
2021/04/03 06:27:06;;;;;;;9.90;7.03;;;6.10;97.90;;;7.32;58.51;98431.63;5204610;28;20201;-56
2021/04/03 06:29:40;;;;;;;8.17;6.90;;;6.20;97.90;;;7.34;58.25;98435.19;5186375;28;20629;-55
2021/04/03 06:32:26;;;;;;;10.37;7.20;;;6.20;97.80;;;7.38;58.27;98442.31;5180084;28;20289;-57
2021/04/03 06:34:58;;;;;;;9.10;6.60;;;6.20;97.70;;;7.43;58.27;98440.09;5183882;28;20712;-57
2021/04/03 06:37:34;;;;;;;7.60;6.90;;;6.10;97.80;;;7.54;57.44;98434.22;5192198;28;20605;-57
2021/04/03 06:40:09;;;;;;;11.53;7.50;;;6.20;97.30;;;7.58;57.00;98431.16;5191996;28;20224;-56
2021/04/03 06:42:46;;;;;;;10.40;9.30;;;6.30;97.30;;;8.02;55.96;98436.22;5202764;28;20198;-57
2021/04/03 06:45:27;;;;;;;9.43;6.90;;;6.70;96.70;;;8.91;53.91;98431.78;5202660;28;20204;-56
2021/04/03 06:48:03;;;;;;;7.63;6.83;;;7.20;95.80;;;9.31;52.09;98434.66;5197856;28;20197;-57
2021/04/03 06:50:40;;;;;;;8.00;7.03;;;7.50;95.10;;;9.79;51.13;98438.88;5193565;28;20199;-52
2021/04/03 06:53:15;;;;;;;7.20;6.50;;;8.10;94.80;;;10.08;49.94;98436.66;5186557;28;20596;-56
2021/04/03 06:55:49;;;;;;;9.20;6.13;;;8.30;93.60;;;10.47;49.44;98434.13;5193736;28;20673;-55
2021/04/03 06:58:27;;;;;;;7.10;6.40;;;8.30;93.80;;;10.91;47.22;98434.50;5193521;28;20218;-56
2021/04/03 07:01:00;;;;;;;7.43;5.90;;;8.50;93.30;;;10.91;46.63;98437.06;5196704;28;20292;-55
2021/04/03 07:03:37;;;;;;;6.73;6.00;;;8.50;92.70;;;10.40;48.39;98430.28;5190054;28;20257;-53
2021/04/03 07:06:10;;;;;;;7.17;6.47;;;8.10;93.40;;;10.34;48.68;98437.56;5186981;28;20194;-52
2021/04/03 07:08:44;;;;;;;7.60;6.80;;;8.10;93.70;;;10.00;49.19;98434.34;5200376;28;20749;-52
2021/04/03 07:11:17;;;;;;;8.57;6.27;;;7.90;93.70;;;9.55;50.52;98440.59;5208521;28;20344;-53
2021/04/03 07:13:51;;;;;;;6.50;5.90;;;7.70;94.00;;;9.65;48.50;98428.59;5191382;28;20250;-57
2021/04/03 07:16:24;;;;;;;5.87;5.33;;;7.90;93.20;;;10.18;46.66;98427.03;5199726;28;20220;-54
2021/04/03 07:18:56;;;;;;;7.17;5.17;;;8.20;92.20;;;10.16;47.31;98434.63;5195900;28;20305;-51
2021/04/03 07:21:28;;;;;;;5.10;4.67;;;8.50;91.80;;;9.88;47.62;98432.72;5198141;28;20190;-52
2021/04/03 07:24:02;;;;;;;5.83;5.00;;;8.50;91.40;;;9.74;48.18;98446.19;5187570;28;20325;-52
2021/04/03 07:26:36;;;;;;;6.50;4.87;;;8.40;92.00;;;9.60;48.21;98435.03;5193025;28;20248;-57
2021/04/03 07:29:08;;;;;;;7.20;5.13;;;8.40;91.50;;;9.70;49.41;98444.22;5203785;28;20265;-54
2021/04/03 07:31:44;;;;;;;5.20;4.70;;;8.40;91.90;;;9.95;48.42;98438.25;5192591;28;20244;-54
2021/04/03 07:34:16;;;;;;;5.80;5.23;;;8.60;91.80;;;9.81;48.89;98439.84;5191941;28;20300;-58
2021/04/03 07:36:48;;;;;;;5.80;4.70;;;8.70;91.30;;;9.99;48.73;98455.56;5204195;28;20221;-54
2021/04/03 07:39:37;;;;;;;5.53;5.03;;;8.80;91.30;;;10.05;48.40;98440.66;5193706;28;20675;-56
2021/04/03 07:42:34;;;;;;;5.73;4.87;;;8.70;91.80;;;10.05;48.69;98456.00;5197926;28;20252;-53
2021/04/03 07:45:45;;;;;;;6.93;5.30;;;8.90;91.40;;;10.15;47.92;98464.34;5199262;28;20241;-53
2021/04/03 07:48:43;;;;;;;5.97;5.27;;;8.80;91.50;;;10.07;47.82;98464.63;5183873;28;20273;-57
2021/04/03 07:51:41;;;;;;;6.17;5.57;;;8.80;91.60;;;9.92;47.96;98461.91;5194486;28;20285;-52
2021/04/03 07:54:29;;;;;;;6.33;5.73;;;8.50;91.90;;;9.90;48.87;98460.91;5197898;28;20580;-53
2021/04/03 07:57:05;;;;;;;6.50;5.37;;;8.60;92.10;;;10.07;49.13;98469.72;5186361;28;20230;-56
2021/04/03 07:59:58;;;;;;;6.20;5.60;;;8.70;91.90;;;10.14;48.15;98472.81;5188704;28;20214;-55
2021/04/03 08:02:37;;;;;;;5.73;4.90;;;8.70;91.90;;;10.41;48.18;98466.94;5186713;28;20736;-54
2021/04/03 08:05:11;;;;;;;5.10;4.43;;;9.00;91.60;;;10.49;45.58;98465.81;5204485;22;20250;-57
2021/04/03 08:07:43;;;;;;;4.97;4.57;;;9.30;90.00;;;10.39;45.69;98479.66;5177516;28;20721;-60
2021/04/03 08:10:20;;;;;;;5.23;4.83;;;9.10;89.20;;;10.17;46.75;98477.25;5175324;28;20290;-60
2021/04/03 08:12:54;;;;;;;6.63;4.53;;;9.00;89.70;;;10.10;46.41;98482.72;5185912;28;20194;-60
2021/04/03 08:15:27;;;;;;;5.50;4.33;;;8.80;90.50;;;9.88;47.29;98488.91;5186144;28;20305;-59
2021/04/03 08:17:59;;;;;;;4.60;4.20;;;8.90;89.20;;;9.66;46.95;98498.38;5184829;28;20211;-59
2021/04/03 08:20:31;;;;;;;7.10;4.47;;;8.70;89.80;;;9.29;47.84;98502.50;5185894;28;20218;-54
2021/04/03 08:23:05;;;;;;;5.67;4.60;;;8.40;89.80;;;9.30;47.93;98504.28;5185772;28;20729;-59
2021/04/03 08:25:53;;;;;;;5.43;4.40;;;8.30;90.10;;;9.23;48.60;98503.84;5186232;28;20297;-57
2021/04/03 08:28:26;;;;;;;6.07;4.67;;;8.30;90.70;;;9.55;46.56;98512.03;5185950;28;20230;-57
2021/04/03 08:30:58;;;;;;;5.70;4.17;;;8.50;90.00;;;9.74;47.55;98514.25;5184965;28;20286;-58
2021/04/03 08:33:31;;;;;;;5.40;4.90;;;8.80;90.00;;;9.97;46.14;98503.09;5185180;28;20233;-60
2021/04/03 08:36:12;;;;;;;6.60;4.13;;;8.90;88.60;;;9.92;47.50;98510.41;5185475;28;20668;-55
2021/04/03 08:38:45;;;;;;;6.13;4.63;;;8.90;90.00;;;9.98;47.10;98503.19;5184514;28;20234;-59
2021/04/03 08:41:20;;;;;;;5.67;4.63;;;8.90;90.00;;;9.86;47.46;98508.31;5185449;28;20286;-59
2021/04/03 08:43:53;;;;;;;5.43;4.23;;;9.00;89.40;;;9.87;47.61;98512.66;5184004;28;20724;-59
2021/04/03 08:46:26;;;;;;;5.43;4.50;;;8.90;90.00;;;10.04;46.51;98510.38;5181571;28;20273;-56
2021/04/03 08:49:00;;;;;;;6.10;4.43;;;9.20;89.20;;;10.39;46.36;98507.75;5178313;28;20662;-59
2021/04/03 08:51:32;;;;;;;5.37;4.87;;;9.50;89.20;;;10.59;45.93;98498.88;5178850;28;20209;-58
2021/04/03 08:54:05;;;;;;;5.27;4.37;;;9.60;88.40;;;10.98;44.37;98508.28;5184921;28;20219;-57
2021/04/03 08:56:38;;;;;;;5.17;4.33;;;9.90;85.80;;;10.50;43.35;98513.56;5185171;28;20285;-58
2021/04/03 08:59:14;;;;;;;4.97;3.80;;;9.60;84.60;;;10.47;44.39;98495.47;5184710;28;20781;-56
2021/04/03 09:01:49;;;;;;;7.67;4.57;;;9.50;85.40;;;10.32;44.31;98506.44;5184742;28;20306;-58
2021/04/03 09:04:22;;;;;;;5.10;4.13;;;9.40;85.60;;;10.65;44.04;98504.41;5184665;28;20772;-60
2021/04/03 09:06:55;;;;;;;4.63;4.23;;;9.70;85.50;;;10.70;43.60;98508.16;5185399;28;20290;-60
2021/04/03 09:09:28;;;;;;;6.80;3.70;;;9.90;83.10;;;10.60;42.83;98508.31;5184125;28;20222;-57
2021/04/03 09:12:05;;;;;;;5.73;4.07;;;9.70;83.60;;;10.58;45.02;98507.31;5180555;28;20579;-60
2021/04/03 09:14:39;;;;;;;5.23;4.10;;;9.50;86.50;;;10.74;44.50;98510.13;5176656;28;20312;-57
2021/04/03 09:17:19;;;;;;;4.90;4.27;;;9.60;85.30;;;10.73;44.88;98516.03;5184183;28;20198;-60
2021/04/03 09:19:52;;;;;;;7.27;4.57;;;9.70;85.80;;;10.74;43.42;98515.22;5185212;28;20702;-58
2021/04/03 09:22:24;;;;;;;4.80;4.17;;;9.70;84.00;;;10.83;44.03;98518.41;5184704;28;20657;-59
2021/04/03 09:24:58;;;;;;;4.80;4.10;;;9.50;84.10;;;10.97;43.93;98524.44;5184673;28;20310;-60
2021/04/03 09:27:31;;;;;;;5.43;4.27;;;9.60;86.20;;;10.92;43.92;98524.91;5178755;28;20684;-58
2021/04/03 09:30:07;;;;;;;4.50;4.10;;;9.60;85.40;;;11.02;43.14;98528.19;5185167;28;20295;-60
2021/04/03 09:32:41;;;;;;;6.07;4.23;;;9.60;85.40;;;11.04;44.28;98530.81;5184934;28;20269;-61
2021/04/03 09:35:21;;;;;;;6.47;4.00;;;9.90;85.80;;;11.37;43.02;98518.47;5185423;28;20805;-55
2021/04/03 09:37:57;;;;;;;5.17;4.20;;;10.10;83.90;;;11.64;43.21;98533.03;5184876;28;20283;-60
2021/04/03 09:40:35;;;;;;;4.47;3.80;;;10.50;83.80;;;11.78;41.23;98520.22;5182573;28;20215;-59
2021/04/03 09:43:08;;;;;;;4.60;3.70;;;10.50;82.00;;;11.58;40.93;98517.28;5184592;28;20206;-60
2021/04/03 09:45:41;;;;;;;4.43;3.70;;;10.50;80.70;;;11.70;41.92;98515.50;5184114;28;20201;-61
2021/04/03 09:48:16;;;;;;;4.93;3.55;;;10.80;81.80;;;11.79;42.07;98519.41;5183434;28;20628;-60
2021/04/03 09:50:48;;;;;;;3.77;3.33;;;11.10;81.40;;;12.17;41.48;98514.16;5185156;28;20208;-60
2021/04/03 09:53:20;;;;;;;4.83;3.80;;;11.50;81.00;;;12.48;41.47;98514.34;5184267;28;20211;-59
2021/04/03 09:55:52;;;;;;;4.60;3.92;;;11.70;79.80;;;12.30;39.45;98518.34;5184135;28;20199;-60
2021/04/03 09:58:25;;;;;;;4.10;3.72;;;11.60;77.10;;;12.11;39.54;98517.22;5183255;28;20285;-59
2021/04/03 10:00:58;;;;;;;4.68;3.72;;;11.20;78.20;;;12.32;40.29;98507.41;5184250;28;20205;-60
2021/04/03 10:03:30;;;;;;;5.68;3.83;;;11.60;78.60;;;12.22;38.59;98520.47;5178623;28;20226;-60
2021/04/03 10:06:03;;;;;;;4.17;3.30;;;11.80;74.70;;;12.31;38.77;98522.69;5184598;28;20195;-60
2021/04/03 11:23:51;;;;;;;4.93;4.53;;;10.70;73.90;;;10.92;39.56;98522.34;5283748;27;20338;-57
2021/04/03 11:26:23;;;;;;;5.93;5.43;;;10.80;74.10;;;11.17;37.74;98514.63;5281792;28;20734;-56
2021/04/03 11:28:55;;;;;;;5.07;4.63;;;10.90;72.20;;;11.34;36.72;98520.84;5265857;28;20191;-59
2021/04/03 11:31:27;;;;;;;3.57;3.17;;;11.10;71.00;;;11.61;37.56;98517.47;5277388;28;20207;-59
2021/04/03 11:34:00;;;;;;;4.43;3.33;;;11.00;71.80;;;11.98;36.06;98514.69;5276372;28;20215;-57
2021/04/03 11:36:32;;;;;;;3.30;2.97;;;11.10;70.00;;;12.06;34.75;98508.38;5274032;28;20205;-57
2021/04/03 11:39:06;;;;;;;3.70;3.37;;;11.20;68.80;;;12.21;34.17;98510.09;5275227;28;20283;-59
2021/04/03 11:41:38;;;;;;;3.80;3.50;;;11.40;67.40;;;11.97;35.12;98507.81;5282962;28;20202;-57
2021/04/03 11:44:10;;;;;;;3.50;3.20;;;11.30;69.00;;;11.74;35.37;98514.03;5283423;28;20211;-50
2021/04/03 11:46:42;;;;;;;4.20;3.90;;;10.80;69.60;;;11.48;36.61;98514.94;5277786;28;20282;-56
2021/04/03 11:49:14;;;;;;;4.43;4.03;;;10.80;70.90;;;11.05;37.34;98522.38;5282955;28;20564;-54
2021/04/03 11:51:47;;;;;;;3.77;3.37;;;10.40;72.30;;;11.24;38.13;98512.53;5284754;28;20188;-56
2021/04/03 11:54:21;;;;;;;3.40;3.07;;;10.40;73.70;;;11.25;37.19;98510.91;5284233;28;20302;-53
2021/04/03 11:56:53;;;;;;;3.83;3.40;;;10.50;72.60;;;11.45;37.95;98507.06;5284048;28;20895;-57
2021/04/03 11:59:25;;;;;;;3.43;3.07;;;10.70;73.00;;;11.67;37.71;98497.38;5285364;28;20710;-56
2021/04/03 12:01:58;;;;;;;3.57;3.33;;;10.90;72.40;;;12.02;36.23;98493.63;5273138;28;20221;-56
2021/04/03 12:04:31;;;;;;;3.37;3.03;;;11.20;70.90;;;12.37;35.14;98495.75;5285015;28;20212;-56
2021/04/03 12:07:04;;;;;;;3.13;2.93;;;11.40;69.00;;;12.33;35.00;98493.81;5283462;28;20198;-55
2021/04/03 12:09:37;;;;;;;3.63;3.33;;;11.50;69.60;;;12.35;36.93;98496.44;5280549;28;20292;-56
2021/04/03 12:12:10;;;;;;;4.00;3.47;;;11.50;72.80;;;12.29;37.22;98491.81;5284335;28;20282;-58
2021/04/03 12:14:42;;;;;;;4.75;3.78;;;11.40;72.70;;;12.11;37.67;98504.41;5283777;28;20675;-57
2021/04/03 12:17:14;;;;;;;3.65;3.35;;;11.20;73.30;;;12.10;36.90;98500.09;5283628;28;20298;-58